PWSweather.com
Personal Weather Stations
Station Observations
IRIVIRED2
île Maurice, Petit RaffrayMU

île MauricePetit RaffrayMU

Lat: -20.02533, Lon: 57.61883

Elevation: 183

Station Type: Davis Vantage Pro2 plus

http://www.meteomauritius.altervista.org

High Low Average
Temperature 79.3°F26.3°C 71.0°F21.7°C 74.6°F23.7°C
Dew Point 71.0°F21.7°C 66.9°F19.4°C 68.9°F20.5°C
Winds 11.5 mph 18.5 kmh Calm Calm 5.0 mph SE8.0 kmh SE
Wind Gusts 20.7 mph33.3 kmh -- 8.0 mph12.9 kmh
Humidity 91% 74% 83%
Pressure 30.12 in1020.0 mb 30.03 in1016.9 mb -
Precipitation 0.00 in0.0 mm - -
Hour Temp Dew Point Humidity Winds Wind Gusts Pressure Precip Precip Rate Daily Precip Total
12:00 AM 71.4°F21.9°C 68.0°F20.0°C 89% 2.3 mph SE3.7 kmh SE 3.5 mph5.6 kmh 30.09 in1019.0 mb - 0.00 in0.0 mm 0.00 in0.0 mm
12:10 AM 71.4°F21.9°C 68.0°F20.0°C 89% 2.3 mph SE3.7 kmh SE 3.5 mph5.6 kmh 30.08 in1018.6 mb - 0.00 in0.0 mm 0.00 in0.0 mm
12:20 AM 71.4°F21.9°C 68.0°F20.0°C 89% 3.5 mph SSE5.6 kmh SSE 5.8 mph9.3 kmh 30.08 in1018.6 mb - 0.00 in0.0 mm 0.00 in0.0 mm
12:30 AM 71.5°F21.9°C 68.1°F20.1°C 89% 4.6 mph SE7.4 kmh SE 6.9 mph11.1 kmh 30.08 in1018.6 mb - 0.00 in0.0 mm 0.00 in0.0 mm
12:40 AM 71.6°F22.0°C 68.2°F20.1°C 89% 2.3 mph SSE3.7 kmh SSE 5.8 mph9.3 kmh 30.08 in1018.6 mb - 0.00 in0.0 mm 0.00 in0.0 mm
12:50 AM 71.6°F22.0°C 68.2°F20.1°C 89% 4.6 mph SE7.4 kmh SE 8.1 mph13.0 kmh 30.08 in1018.6 mb - 0.00 in0.0 mm 0.00 in0.0 mm
01:00 AM 71.6°F22.0°C 68.2°F20.1°C 89% 2.3 mph SE3.7 kmh SE 3.5 mph5.6 kmh 30.07 in1018.3 mb - 0.00 in0.0 mm 0.00 in0.0 mm
01:10 AM 71.5°F21.9°C 68.1°F20.1°C 89% 3.5 mph SE5.6 kmh SE 5.8 mph9.3 kmh 30.07 in1018.3 mb - 0.00 in0.0 mm 0.00 in0.0 mm
01:20 AM 71.4°F21.9°C 68.0°F20.0°C 89% 3.5 mph SSE5.6 kmh SSE 8.1 mph13.0 kmh 30.07 in1018.3 mb - 0.00 in0.0 mm 0.00 in0.0 mm
01:30 AM 71.2°F21.8°C 67.8°F19.9°C 89% 2.3 mph S3.7 kmh S 3.5 mph5.6 kmh 30.07 in1018.3 mb - 0.00 in0.0 mm 0.00 in0.0 mm
01:40 AM 71.0°F21.7°C 67.9°F19.9°C 90% 1.2 mph S1.9 kmh S 4.6 mph7.4 kmh 30.07 in1018.3 mb - 0.00 in0.0 mm 0.00 in0.0 mm
01:50 AM 71.0°F21.7°C 67.9°F19.9°C 90% 3.5 mph SSE5.6 kmh SSE 6.9 mph11.1 kmh 30.06 in1017.9 mb - 0.00 in0.0 mm 0.00 in0.0 mm
02:00 AM 71.0°F21.7°C 67.9°F19.9°C 90% 4.6 mph S7.4 kmh S 6.9 mph11.1 kmh 30.06 in1017.9 mb - 0.00 in0.0 mm 0.00 in0.0 mm
02:10 AM 71.1°F21.7°C 68.0°F20.0°C 90% 2.3 mph SE3.7 kmh SE 4.6 mph7.4 kmh 30.06 in1017.9 mb - 0.00 in0.0 mm 0.00 in0.0 mm
02:20 AM 71.1°F21.7°C 68.0°F20.0°C 90% 1.2 mph S1.9 kmh S 4.6 mph7.4 kmh 30.05 in1017.6 mb - 0.00 in0.0 mm 0.00 in0.0 mm
02:30 AM 71.2°F21.8°C 68.1°F20.1°C 90% 3.5 mph SSE5.6 kmh SSE 6.9 mph11.1 kmh 30.05 in1017.6 mb - 0.00 in0.0 mm 0.00 in0.0 mm
02:40 AM 71.3°F21.8°C 68.2°F20.1°C 90% 2.3 mph SSE3.7 kmh SSE 2.3 mph3.7 kmh 30.05 in1017.6 mb - 0.00 in0.0 mm 0.00 in0.0 mm
02:50 AM 71.3°F21.8°C 68.2°F20.1°C 90% 3.5 mph SSE5.6 kmh SSE 3.5 mph5.6 kmh 30.05 in1017.6 mb - 0.00 in0.0 mm 0.00 in0.0 mm
03:00 AM 71.3°F21.8°C 68.2°F20.1°C 90% 2.3 mph SSE3.7 kmh SSE 6.9 mph11.1 kmh 30.05 in1017.6 mb - 0.00 in0.0 mm 0.00 in0.0 mm
03:10 AM 71.3°F21.8°C 68.2°F20.1°C 90% 3.5 mph SE5.6 kmh SE 5.8 mph9.3 kmh 30.05 in1017.6 mb - 0.00 in0.0 mm 0.00 in0.0 mm
03:20 AM 71.4°F21.9°C 68.3°F20.2°C 90% 3.5 mph SSE5.6 kmh SSE 5.8 mph9.3 kmh 30.05 in1017.6 mb - 0.00 in0.0 mm 0.00 in0.0 mm
03:30 AM 71.5°F21.9°C 68.4°F20.2°C 90% 3.5 mph SSE5.6 kmh SSE 3.5 mph5.6 kmh 30.05 in1017.6 mb - 0.00 in0.0 mm 0.00 in0.0 mm
03:40 AM 71.6°F22.0°C 68.2°F20.1°C 89% 2.3 mph SE3.7 kmh SE 5.8 mph9.3 kmh 30.05 in1017.6 mb - 0.00 in0.0 mm 0.00 in0.0 mm
03:50 AM 71.7°F22.1°C 68.3°F20.2°C 89% 2.3 mph SE3.7 kmh SE 3.5 mph5.6 kmh 30.05 in1017.6 mb - 0.00 in0.0 mm 0.00 in0.0 mm
04:00 AM 71.7°F22.1°C 68.3°F20.2°C 89% 4.6 mph SSE7.4 kmh SSE 5.8 mph9.3 kmh 30.05 in1017.6 mb - 0.00 in0.0 mm 0.00 in0.0 mm
04:10 AM 71.7°F22.1°C 68.3°F20.2°C 89% 3.5 mph SSE5.6 kmh SSE 4.6 mph7.4 kmh 30.05 in1017.6 mb - 0.00 in0.0 mm 0.00 in0.0 mm
04:20 AM 71.7°F22.1°C 68.3°F20.2°C 89% 3.5 mph SSE5.6 kmh SSE 5.8 mph9.3 kmh 30.05 in1017.6 mb - 0.00 in0.0 mm 0.00 in0.0 mm
04:30 AM 71.6°F22.0°C 68.2°F20.1°C 89% 1.2 mph SE1.9 kmh SE 3.5 mph5.6 kmh 30.06 in1017.9 mb - 0.00 in0.0 mm 0.00 in0.0 mm
04:40 AM 71.5°F21.9°C 68.4°F20.2°C 90% 1.2 mph SSE1.9 kmh SSE 3.5 mph5.6 kmh 30.06 in1017.9 mb - 0.00 in0.0 mm 0.00 in0.0 mm
04:50 AM 71.3°F21.8°C 68.2°F20.1°C 90% 2.3 mph SSE3.7 kmh SSE 3.5 mph5.6 kmh 30.06 in1017.9 mb - 0.00 in0.0 mm 0.00 in0.0 mm
05:00 AM 71.2°F21.8°C 68.4°F20.2°C 91% Calm Calm 3.5 mph5.6 kmh 30.06 in1017.9 mb - 0.00 in0.0 mm 0.00 in0.0 mm
05:10 AM 71.1°F21.7°C 68.3°F20.2°C 91% Calm Calm -- 30.06 in1017.9 mb - 0.00 in0.0 mm 0.00 in0.0 mm
05:20 AM 71.1°F21.7°C 68.3°F20.2°C 91% 3.5 mph SSE5.6 kmh SSE 4.6 mph7.4 kmh 30.06 in1017.9 mb - 0.00 in0.0 mm 0.00 in0.0 mm
05:30 AM 71.0°F21.7°C 68.2°F20.1°C 91% 3.5 mph SE5.6 kmh SE 6.9 mph11.1 kmh 30.06 in1017.9 mb - 0.00 in0.0 mm 0.00 in0.0 mm
05:40 AM 71.0°F21.7°C 68.2°F20.1°C 91% 3.5 mph SE5.6 kmh SE 6.9 mph11.1 kmh 30.06 in1017.9 mb - 0.00 in0.0 mm 0.00 in0.0 mm
05:50 AM 71.1°F21.7°C 68.4°F20.2°C 91% 3.5 mph SE5.6 kmh SE 5.8 mph9.3 kmh 30.06 in1017.9 mb - 0.00 in0.0 mm 0.00 in0.0 mm
06:00 AM 71.3°F21.8°C 68.2°F20.1°C 90% 3.5 mph SE5.6 kmh SE 8.1 mph13.0 kmh 30.06 in1017.9 mb - 0.00 in0.0 mm 0.00 in0.0 mm
06:10 AM 71.5°F21.9°C 68.4°F20.2°C 90% 3.5 mph SE5.6 kmh SE 4.6 mph7.4 kmh 30.06 in1017.9 mb - 0.00 in0.0 mm 0.00 in0.0 mm
06:20 AM 71.5°F21.9°C 68.4°F20.2°C 90% 4.6 mph SE7.4 kmh SE 8.1 mph13.0 kmh 30.07 in1018.3 mb - 0.00 in0.0 mm 0.00 in0.0 mm
06:30 AM 71.5°F21.9°C 68.4°F20.2°C 90% 4.6 mph ESE7.4 kmh ESE 6.9 mph11.1 kmh 30.07 in1018.3 mb - 0.00 in0.0 mm 0.00 in0.0 mm
06:40 AM 71.4°F21.9°C 68.3°F20.2°C 90% 2.3 mph SE3.7 kmh SE 6.9 mph11.1 kmh 30.07 in1018.3 mb - 0.00 in0.0 mm 0.00 in0.0 mm
06:50 AM 71.4°F21.9°C 68.3°F20.2°C 90% 1.2 mph SE1.9 kmh SE 4.6 mph7.4 kmh 30.08 in1018.6 mb - 0.00 in0.0 mm 0.00 in0.0 mm
07:00 AM 71.3°F21.8°C 68.2°F20.1°C 90% 3.5 mph SSE5.6 kmh SSE 6.9 mph11.1 kmh 30.08 in1018.6 mb - 0.00 in0.0 mm 0.00 in0.0 mm
07:10 AM 71.4°F21.9°C 68.3°F20.2°C 90% 4.6 mph S7.4 kmh S 6.9 mph11.1 kmh 30.08 in1018.6 mb - 0.00 in0.0 mm 0.00 in0.0 mm
07:20 AM 71.7°F22.1°C 68.6°F20.3°C 90% 4.6 mph SE7.4 kmh SE 8.1 mph13.0 kmh 30.08 in1018.6 mb - 0.00 in0.0 mm 0.00 in0.0 mm
07:30 AM 71.9°F22.2°C 68.8°F20.4°C 90% 4.6 mph SE7.4 kmh SE 10.4 mph16.7 kmh 30.09 in1019.0 mb - 0.00 in0.0 mm 0.00 in0.0 mm
07:40 AM 72.4°F22.4°C 69.0°F20.6°C 89% 5.8 mph SE9.3 kmh SE 8.1 mph13.0 kmh 30.09 in1019.0 mb - 0.00 in0.0 mm 0.00 in0.0 mm
07:50 AM 73.1°F22.8°C 69.3°F20.7°C 88% 3.5 mph SSE5.6 kmh SSE 6.9 mph11.1 kmh 30.09 in1019.0 mb - 0.00 in0.0 mm 0.00 in0.0 mm
08:00 AM 73.9°F23.3°C 69.8°F21.0°C 87% 5.8 mph SSE9.3 kmh SSE 9.2 mph14.8 kmh 30.09 in1019.0 mb - 0.00 in0.0 mm 0.00 in0.0 mm
08:10 AM 74.5°F23.6°C 69.7°F20.9°C 85% 6.9 mph S11.1 kmh S 9.2 mph14.8 kmh 30.10 in1019.3 mb - 0.00 in0.0 mm 0.00 in0.0 mm
08:20 AM 75.0°F23.9°C 69.9°F21.1°C 84% 4.6 mph SE7.4 kmh SE 9.2 mph14.8 kmh 30.10 in1019.3 mb - 0.00 in0.0 mm 0.00 in0.0 mm
08:30 AM 75.7°F24.3°C 70.5°F21.4°C 84% 4.6 mph ESE7.4 kmh ESE 8.1 mph13.0 kmh 30.11 in1019.6 mb - 0.00 in0.0 mm 0.00 in0.0 mm
08:40 AM 75.6°F24.2°C 70.1°F21.2°C 83% 4.6 mph ESE7.4 kmh ESE 6.9 mph11.1 kmh 30.11 in1019.6 mb - 0.00 in0.0 mm 0.00 in0.0 mm
08:50 AM 75.7°F24.3°C 70.2°F21.2°C 83% 6.9 mph SE11.1 kmh SE 11.5 mph18.5 kmh 30.11 in1019.6 mb - 0.00 in0.0 mm 0.00 in0.0 mm
09:00 AM 75.9°F24.4°C 70.0°F21.1°C 82% 6.9 mph ESE11.1 kmh ESE 10.4 mph16.7 kmh 30.11 in1019.6 mb - 0.00 in0.0 mm 0.00 in0.0 mm
09:10 AM 76.0°F24.4°C 70.1°F21.2°C 82% 1.2 mph SE1.9 kmh SE 9.2 mph14.8 kmh 30.11 in1019.6 mb - 0.00 in0.0 mm 0.00 in0.0 mm
09:20 AM 76.1°F24.5°C 70.2°F21.2°C 82% 8.1 mph SE13.0 kmh SE 12.7 mph20.4 kmh 30.11 in1019.6 mb - 0.00 in0.0 mm 0.00 in0.0 mm
09:30 AM 76.7°F24.8°C 70.4°F21.3°C 81% 5.8 mph ESE9.3 kmh ESE 8.1 mph13.0 kmh 30.11 in1019.6 mb - 0.00 in0.0 mm 0.00 in0.0 mm
09:40 AM 77.4°F25.2°C 70.8°F21.6°C 80% 6.9 mph SE11.1 kmh SE 11.5 mph18.5 kmh 30.12 in1020.0 mb - 0.00 in0.0 mm 0.00 in0.0 mm
09:50 AM 77.7°F25.4°C 70.3°F21.3°C 78% 8.1 mph SE13.0 kmh SE 11.5 mph18.5 kmh 30.11 in1019.6 mb - 0.00 in0.0 mm 0.00 in0.0 mm
10:00 AM 77.7°F25.4°C 70.3°F21.3°C 78% 10.4 mph SE16.7 kmh SE 20.7 mph33.3 kmh 30.11 in1019.6 mb - 0.00 in0.0 mm 0.00 in0.0 mm
10:10 AM 77.7°F25.4°C 70.3°F21.3°C 78% 5.8 mph SE9.3 kmh SE 10.4 mph16.7 kmh 30.11 in1019.6 mb - 0.00 in0.0 mm 0.00 in0.0 mm
10:20 AM 78.5°F25.8°C 70.7°F21.5°C 77% 8.1 mph ESE13.0 kmh ESE 13.8 mph22.2 kmh 30.11 in1019.6 mb - 0.00 in0.0 mm 0.00 in0.0 mm
10:30 AM 78.6°F25.9°C 70.0°F21.1°C 75% 11.5 mph SE18.5 kmh SE 13.8 mph22.2 kmh 30.10 in1019.3 mb - 0.00 in0.0 mm 0.00 in0.0 mm
10:40 AM 78.5°F25.8°C 70.3°F21.3°C 76% 8.1 mph SSE13.0 kmh SSE 11.5 mph18.5 kmh 30.10 in1019.3 mb - 0.00 in0.0 mm 0.00 in0.0 mm
10:50 AM 78.3°F25.7°C 70.5°F21.4°C 77% 6.9 mph ESE11.1 kmh ESE 10.4 mph16.7 kmh 30.10 in1019.3 mb - 0.00 in0.0 mm 0.00 in0.0 mm
11:00 AM 78.5°F25.8°C 70.3°F21.3°C 76% 6.9 mph SE11.1 kmh SE 10.4 mph16.7 kmh 30.09 in1019.0 mb - 0.00 in0.0 mm 0.00 in0.0 mm
11:10 AM 78.8°F26.0°C 70.2°F21.2°C 75% 6.9 mph E11.1 kmh E 11.5 mph18.5 kmh 30.09 in1019.0 mb - 0.00 in0.0 mm 0.00 in0.0 mm
11:20 AM 78.8°F26.0°C 69.8°F21.0°C 74% 6.9 mph ESE11.1 kmh ESE 12.7 mph20.4 kmh 30.09 in1019.0 mb - 0.00 in0.0 mm 0.00 in0.0 mm
11:30 AM 78.3°F25.7°C 70.5°F21.4°C 77% 9.2 mph SE14.8 kmh SE 11.5 mph18.5 kmh 30.09 in1019.0 mb - 0.00 in0.0 mm 0.00 in0.0 mm
11:40 AM 78.3°F25.7°C 70.8°F21.6°C 78% 2.3 mph SE3.7 kmh SE 10.4 mph16.7 kmh 30.09 in1019.0 mb - 0.00 in0.0 mm 0.00 in0.0 mm
11:50 AM 78.1°F25.6°C 70.3°F21.3°C 77% 2.3 mph SE3.7 kmh SE 9.2 mph14.8 kmh 30.08 in1018.6 mb - 0.00 in0.0 mm 0.00 in0.0 mm
12:00 PM 78.7°F25.9°C 69.7°F20.9°C 74% 8.1 mph ESE13.0 kmh ESE 12.7 mph20.4 kmh 30.08 in1018.6 mb - 0.00 in0.0 mm 0.00 in0.0 mm
12:10 PM 78.7°F25.9°C 70.1°F21.2°C 75% 8.1 mph ESE13.0 kmh ESE 11.5 mph18.5 kmh 30.07 in1018.3 mb - 0.00 in0.0 mm 0.00 in0.0 mm
12:20 PM 78.6°F25.9°C 70.0°F21.1°C 75% 4.6 mph ESE7.4 kmh ESE 5.8 mph9.3 kmh 30.07 in1018.3 mb - 0.00 in0.0 mm 0.00 in0.0 mm
12:30 PM 78.8°F26.0°C 69.8°F21.0°C 74% 6.9 mph E11.1 kmh E 12.7 mph20.4 kmh 30.07 in1018.3 mb - 0.00 in0.0 mm 0.00 in0.0 mm
12:40 PM 79.3°F26.3°C 71.0°F21.7°C 76% 4.6 mph SE7.4 kmh SE 6.9 mph11.1 kmh 30.06 in1017.9 mb - 0.00 in0.0 mm 0.00 in0.0 mm
12:50 PM 78.9°F26.1°C 70.3°F21.3°C 75% 5.8 mph ESE9.3 kmh ESE 11.5 mph18.5 kmh 30.06 in1017.9 mb - 0.00 in0.0 mm 0.00 in0.0 mm
01:00 PM 78.4°F25.8°C 69.8°F21.0°C 75% 6.9 mph ESE11.1 kmh ESE 13.8 mph22.2 kmh 30.06 in1017.9 mb - 0.00 in0.0 mm 0.00 in0.0 mm
01:10 PM 78.4°F25.8°C 69.8°F21.0°C 75% 6.9 mph SE11.1 kmh SE 12.7 mph20.4 kmh 30.05 in1017.6 mb - 0.00 in0.0 mm 0.00 in0.0 mm
01:20 PM 78.3°F25.7°C 69.7°F20.9°C 75% 6.9 mph SE11.1 kmh SE 10.4 mph16.7 kmh 30.05 in1017.6 mb - 0.00 in0.0 mm 0.00 in0.0 mm
01:30 PM 78.1°F25.6°C 69.5°F20.8°C 75% 4.6 mph ESE7.4 kmh ESE 9.2 mph14.8 kmh 30.05 in1017.6 mb - 0.00 in0.0 mm 0.00 in0.0 mm
01:40 PM 77.9°F25.5°C 70.1°F21.2°C 77% 3.5 mph SE5.6 kmh SE 8.1 mph13.0 kmh 30.05 in1017.6 mb - 0.00 in0.0 mm 0.00 in0.0 mm
01:50 PM 77.9°F25.5°C 69.7°F20.9°C 76% 5.8 mph SE9.3 kmh SE 10.4 mph16.7 kmh 30.05 in1017.6 mb - 0.00 in0.0 mm 0.00 in0.0 mm
02:00 PM 77.9°F25.5°C 69.7°F20.9°C 76% 5.8 mph SE9.3 kmh SE 10.4 mph16.7 kmh 30.05 in1017.6 mb - 0.00 in0.0 mm 0.00 in0.0 mm
02:10 PM 77.9°F25.5°C 70.1°F21.2°C 77% 8.1 mph ESE13.0 kmh ESE 13.8 mph22.2 kmh 30.05 in1017.6 mb - 0.00 in0.0 mm 0.00 in0.0 mm
02:20 PM 77.9°F25.5°C 69.7°F20.9°C 76% 6.9 mph SE11.1 kmh SE 12.7 mph20.4 kmh 30.05 in1017.6 mb - 0.00 in0.0 mm 0.00 in0.0 mm
02:30 PM 77.7°F25.4°C 69.1°F20.6°C 75% 8.1 mph ESE13.0 kmh ESE 12.7 mph20.4 kmh 30.05 in1017.6 mb - 0.00 in0.0 mm 0.00 in0.0 mm
02:40 PM 77.9°F25.5°C 69.3°F20.7°C 75% 8.1 mph SE13.0 kmh SE 11.5 mph18.5 kmh 30.05 in1017.6 mb - 0.00 in0.0 mm 0.00 in0.0 mm
02:50 PM 77.8°F25.4°C 69.6°F20.9°C 76% 8.1 mph SE13.0 kmh SE 11.5 mph18.5 kmh 30.05 in1017.6 mb - 0.00 in0.0 mm 0.00 in0.0 mm
03:00 PM 77.8°F25.4°C 69.6°F20.9°C 76% 8.1 mph SE13.0 kmh SE 12.7 mph20.4 kmh 30.04 in1017.3 mb - 0.00 in0.0 mm 0.00 in0.0 mm
03:10 PM 77.9°F25.5°C 70.1°F21.2°C 77% 6.9 mph SE11.1 kmh SE 11.5 mph18.5 kmh 30.04 in1017.3 mb - 0.00 in0.0 mm 0.00 in0.0 mm
03:20 PM 77.6°F25.3°C 69.8°F21.0°C 77% 6.9 mph SE11.1 kmh SE 16.1 mph25.9 kmh 30.04 in1017.3 mb - 0.00 in0.0 mm 0.00 in0.0 mm
03:30 PM 77.0°F25.0°C 69.2°F20.7°C 77% 5.8 mph SE9.3 kmh SE 9.2 mph14.8 kmh 30.03 in1016.9 mb - 0.00 in0.0 mm 0.00 in0.0 mm
03:40 PM 77.0°F25.0°C 70.0°F21.1°C 79% 4.6 mph SE7.4 kmh SE 5.8 mph9.3 kmh 30.03 in1016.9 mb - 0.00 in0.0 mm 0.00 in0.0 mm
03:50 PM 76.7°F24.8°C 69.3°F20.7°C 78% 3.5 mph SE5.6 kmh SE 4.6 mph7.4 kmh 30.03 in1016.9 mb - 0.00 in0.0 mm 0.00 in0.0 mm
04:00 PM 76.6°F24.8°C 69.2°F20.7°C 78% 5.8 mph ESE9.3 kmh ESE 12.7 mph20.4 kmh 30.04 in1017.3 mb - 0.00 in0.0 mm 0.00 in0.0 mm
04:10 PM 76.4°F24.7°C 69.0°F20.6°C 78% 4.6 mph SE7.4 kmh SE 12.7 mph20.4 kmh 30.04 in1017.3 mb - 0.00 in0.0 mm 0.00 in0.0 mm
04:20 PM 76.3°F24.6°C 68.9°F20.5°C 78% 8.1 mph SE13.0 kmh SE 12.7 mph20.4 kmh 30.04 in1017.3 mb - 0.00 in0.0 mm 0.00 in0.0 mm
04:30 PM 76.2°F24.6°C 69.2°F20.7°C 79% 6.9 mph SE11.1 kmh SE 10.4 mph16.7 kmh 30.04 in1017.3 mb - 0.00 in0.0 mm 0.00 in0.0 mm
04:40 PM 76.2°F24.6°C 69.2°F20.7°C 79% 3.5 mph SE5.6 kmh SE 6.9 mph11.1 kmh 30.04 in1017.3 mb - 0.00 in0.0 mm 0.00 in0.0 mm
04:50 PM 76.0°F24.4°C 69.0°F20.6°C 79% 5.8 mph SE9.3 kmh SE 11.5 mph18.5 kmh 30.04 in1017.3 mb - 0.00 in0.0 mm 0.00 in0.0 mm
05:00 PM 75.8°F24.3°C 68.8°F20.4°C 79% 6.9 mph SE11.1 kmh SE 11.5 mph18.5 kmh 30.05 in1017.6 mb - 0.00 in0.0 mm 0.00 in0.0 mm
05:10 PM 75.7°F24.3°C 69.1°F20.6°C 80% 3.5 mph SE5.6 kmh SE 6.9 mph11.1 kmh 30.05 in1017.6 mb - 0.00 in0.0 mm 0.00 in0.0 mm
05:20 PM 75.5°F24.2°C 68.9°F20.5°C 80% 5.8 mph SE9.3 kmh SE 8.1 mph13.0 kmh 30.06 in1017.9 mb - 0.00 in0.0 mm 0.00 in0.0 mm
05:30 PM 75.4°F24.1°C 69.2°F20.7°C 81% 3.5 mph SE5.6 kmh SE 6.9 mph11.1 kmh 30.06 in1017.9 mb - 0.00 in0.0 mm 0.00 in0.0 mm
05:40 PM 75.2°F24.0°C 69.0°F20.6°C 81% 5.8 mph SE9.3 kmh SE 8.1 mph13.0 kmh 30.06 in1017.9 mb - 0.00 in0.0 mm 0.00 in0.0 mm
05:50 PM 75.1°F23.9°C 68.5°F20.3°C 80% 5.8 mph SE9.3 kmh SE 13.8 mph22.2 kmh 30.06 in1017.9 mb - 0.00 in0.0 mm 0.00 in0.0 mm
06:00 PM 75.0°F23.9°C 68.8°F20.4°C 81% 3.5 mph SE5.6 kmh SE 9.2 mph14.8 kmh 30.07 in1018.3 mb - 0.00 in0.0 mm 0.00 in0.0 mm
06:10 PM 75.0°F23.9°C 68.4°F20.2°C 80% 2.3 mph SE3.7 kmh SE 6.9 mph11.1 kmh 30.06 in1017.9 mb - 0.00 in0.0 mm 0.00 in0.0 mm
06:20 PM 74.9°F23.8°C 68.3°F20.2°C 80% 5.8 mph SE9.3 kmh SE 12.7 mph20.4 kmh 30.07 in1018.3 mb - 0.00 in0.0 mm 0.00 in0.0 mm
06:30 PM 74.9°F23.8°C 68.3°F20.2°C 80% 4.6 mph SE7.4 kmh SE 6.9 mph11.1 kmh 30.07 in1018.3 mb - 0.00 in0.0 mm 0.00 in0.0 mm
06:40 PM 74.8°F23.8°C 68.2°F20.1°C 80% 5.8 mph SE9.3 kmh SE 9.2 mph14.8 kmh 30.08 in1018.6 mb - 0.00 in0.0 mm 0.00 in0.0 mm
06:50 PM 74.7°F23.7°C 68.2°F20.1°C 80% 4.6 mph ESE7.4 kmh ESE 6.9 mph11.1 kmh 30.08 in1018.6 mb - 0.00 in0.0 mm 0.00 in0.0 mm
07:00 PM 74.7°F23.7°C 68.1°F20.1°C 80% 1.2 mph SE1.9 kmh SE 8.1 mph13.0 kmh 30.08 in1018.6 mb - 0.00 in0.0 mm 0.00 in0.0 mm
07:10 PM 74.6°F23.7°C 68.0°F20.0°C 80% 6.9 mph SE11.1 kmh SE 6.9 mph11.1 kmh 30.08 in1018.6 mb - 0.00 in0.0 mm 0.00 in0.0 mm
07:20 PM 74.6°F23.7°C 68.0°F20.0°C 80% 4.6 mph SE7.4 kmh SE 9.2 mph14.8 kmh 30.08 in1018.6 mb - 0.00 in0.0 mm 0.00 in0.0 mm
07:30 PM 74.6°F23.7°C 68.0°F20.0°C 80% 6.9 mph SE11.1 kmh SE 10.4 mph16.7 kmh 30.08 in1018.6 mb - 0.00 in0.0 mm 0.00 in0.0 mm
07:40 PM 74.5°F23.6°C 67.9°F19.9°C 80% 5.8 mph SE9.3 kmh SE 12.7 mph20.4 kmh 30.09 in1019.0 mb - 0.00 in0.0 mm 0.00 in0.0 mm
07:50 PM 74.5°F23.6°C 67.6°F19.8°C 79% 4.6 mph SE7.4 kmh SE 5.8 mph9.3 kmh 30.09 in1019.0 mb - 0.00 in0.0 mm 0.00 in0.0 mm
08:00 PM 74.4°F23.6°C 67.5°F19.7°C 79% 4.6 mph SE7.4 kmh SE 9.2 mph14.8 kmh 30.09 in1019.0 mb - 0.00 in0.0 mm 0.00 in0.0 mm
08:10 PM 74.4°F23.6°C 67.1°F19.5°C 78% 1.2 mph SE1.9 kmh SE 5.8 mph9.3 kmh 30.09 in1019.0 mb - 0.00 in0.0 mm 0.00 in0.0 mm
08:20 PM 74.3°F23.5°C 67.0°F19.4°C 78% 6.9 mph ESE11.1 kmh ESE 10.4 mph16.7 kmh 30.10 in1019.3 mb - 0.00 in0.0 mm 0.00 in0.0 mm
08:30 PM 74.3°F23.5°C 67.0°F19.4°C 78% 5.8 mph SE9.3 kmh SE 10.4 mph16.7 kmh 30.09 in1019.0 mb - 0.00 in0.0 mm 0.00 in0.0 mm
08:40 PM 74.2°F23.4°C 66.9°F19.4°C 78% 5.8 mph SE9.3 kmh SE 6.9 mph11.1 kmh 30.09 in1019.0 mb - 0.00 in0.0 mm 0.00 in0.0 mm
08:50 PM 74.3°F23.5°C 67.0°F19.4°C 78% 5.8 mph SE9.3 kmh SE 11.5 mph18.5 kmh 30.09 in1019.0 mb - 0.00 in0.0 mm 0.00 in0.0 mm
09:00 PM 74.3°F23.5°C 67.0°F19.4°C 78% 3.5 mph SE5.6 kmh SE 6.9 mph11.1 kmh 30.09 in1019.0 mb - 0.00 in0.0 mm 0.00 in0.0 mm
09:10 PM 74.2°F23.4°C 66.9°F19.4°C 78% 5.8 mph SE9.3 kmh SE 8.1 mph13.0 kmh 30.09 in1019.0 mb - 0.00 in0.0 mm 0.00 in0.0 mm
09:20 PM 74.2°F23.4°C 67.3°F19.6°C 79% 4.6 mph SE7.4 kmh SE 6.9 mph11.1 kmh 30.09 in1019.0 mb - 0.00 in0.0 mm 0.00 in0.0 mm
09:30 PM 74.1°F23.4°C 67.2°F19.6°C 79% 5.8 mph SE9.3 kmh SE 10.4 mph16.7 kmh 30.09 in1019.0 mb - 0.00 in0.0 mm 0.00 in0.0 mm
09:40 PM 74.0°F23.3°C 67.4°F19.7°C 80% 4.6 mph SE7.4 kmh SE 8.1 mph13.0 kmh 30.09 in1019.0 mb - 0.00 in0.0 mm 0.00 in0.0 mm
09:50 PM 74.0°F23.3°C 67.8°F19.9°C 81% 2.3 mph SE3.7 kmh SE 8.1 mph13.0 kmh 30.09 in1019.0 mb - 0.00 in0.0 mm 0.00 in0.0 mm
10:00 PM 73.9°F23.3°C 67.7°F19.8°C 81% 2.3 mph SE3.7 kmh SE 5.8 mph9.3 kmh 30.09 in1019.0 mb - 0.00 in0.0 mm 0.00 in0.0 mm
10:10 PM 73.9°F23.3°C 68.1°F20.1°C 82% 3.5 mph SE5.6 kmh SE 8.1 mph13.0 kmh 30.09 in1019.0 mb - 0.00 in0.0 mm 0.00 in0.0 mm
10:20 PM 73.9°F23.3°C 68.4°F20.2°C 83% 4.6 mph SE7.4 kmh SE 6.9 mph11.1 kmh 30.09 in1019.0 mb - 0.00 in0.0 mm 0.00 in0.0 mm
10:30 PM 73.8°F23.2°C 68.3°F20.2°C 83% 3.5 mph ESE5.6 kmh ESE 5.8 mph9.3 kmh 30.10 in1019.3 mb - 0.00 in0.0 mm 0.00 in0.0 mm
10:40 PM 73.9°F23.3°C 68.8°F20.4°C 84% 4.6 mph SE7.4 kmh SE 5.8 mph9.3 kmh 30.10 in1019.3 mb - 0.00 in0.0 mm 0.00 in0.0 mm
10:50 PM 74.0°F23.3°C 68.9°F20.5°C 84% 4.6 mph ESE7.4 kmh ESE 9.2 mph14.8 kmh 30.09 in1019.0 mb - 0.00 in0.0 mm 0.00 in0.0 mm
11:00 PM 74.1°F23.4°C 69.0°F20.6°C 84% 3.5 mph SE5.6 kmh SE 8.1 mph13.0 kmh 30.09 in1019.0 mb - 0.00 in0.0 mm 0.00 in0.0 mm
11:10 PM 74.2°F23.4°C 69.4°F20.8°C 85% 4.6 mph ESE7.4 kmh ESE 8.1 mph13.0 kmh 30.09 in1019.0 mb - 0.00 in0.0 mm 0.00 in0.0 mm
11:20 PM 74.3°F23.5°C 69.5°F20.8°C 85% 2.3 mph SE3.7 kmh SE 10.4 mph16.7 kmh 30.09 in1019.0 mb - 0.00 in0.0 mm 0.00 in0.0 mm
11:30 PM 74.3°F23.5°C 69.5°F20.8°C 85% 4.6 mph ESE7.4 kmh ESE 10.4 mph16.7 kmh 30.09 in1019.0 mb - 0.00 in0.0 mm 0.00 in0.0 mm
11:40 PM 74.5°F23.6°C 69.7°F20.9°C 85% 4.6 mph SE7.4 kmh SE 9.2 mph14.8 kmh 30.08 in1018.6 mb - 0.00 in0.0 mm 0.00 in0.0 mm
11:50 PM 74.5°F23.6°C 69.7°F20.9°C 85% 4.6 mph ESE7.4 kmh ESE 8.1 mph13.0 kmh 30.08 in1018.6 mb - 0.00 in0.0 mm 0.00 in0.0 mm